Creedmoor, North Carolina
Current Conditions -  °F | °C
As of 7:51 AM on Wednesday 22 Oct 2014 (Local Time) from KRDU Reporting Station
Few Clouds Few Clouds  
Wind Chill: 50°   Ceiling: Unl
Heat Index: 50°   Visibility: 10mi
Dew Point: 38°   Wind: 3mph
Humidity: 63%   Direction: NA
Pressure: 29.97"   Gusts: NA
Location:  36.12°N, 78.69°W
Report Text: KRDU 221151Z VRB03KT 10SM FEW050 10/03 A2997 RMK AO2 SLP146 T01000033 10111 20094 53010
Loading
Personal Weather Stations






























Interactive Weather Map New forecast layout! Learn more

10-Day Weather Forecast

Advertisements
Track Severe Weather on mobile